createdAt,value
2023-11-18T00:01:56.127Z,13.37
2023-11-18T00:04:26.485Z,13.63
2023-11-18T00:06:56.128Z,14.87
2023-11-18T00:09:26.184Z,13.20
2023-11-18T00:11:55.908Z,12.97
2023-11-18T00:14:25.707Z,13.17
2023-11-18T00:16:56.658Z,12.80
2023-11-18T00:19:26.302Z,13.00
2023-11-18T00:21:56.260Z,12.03
2023-11-18T00:24:26.374Z,12.17
2023-11-18T00:26:56.704Z,12.37
2023-11-18T00:29:27.031Z,11.10
2023-11-18T00:31:58.413Z,10.97
2023-11-18T00:34:28.416Z,10.47
2023-11-18T00:36:58.973Z,12.10
2023-11-18T00:39:30.976Z,10.50
2023-11-18T00:42:00.807Z,10.50
2023-11-18T00:44:30.297Z,11.60
2023-11-18T00:47:02.373Z,11.40
2023-11-18T00:49:32.467Z,10.50
2023-11-18T00:52:04.959Z,10.30
2023-11-18T00:54:35.467Z,10.37
2023-11-18T00:57:05.310Z,10.03
2023-11-18T00:59:35.519Z,9.27
2023-11-18T01:02:06.976Z,9.67
2023-11-18T01:04:37.077Z,9.63
2023-11-18T01:07:07.031Z,8.00
2023-11-18T01:09:40.348Z,8.30
2023-11-18T01:12:11.383Z,8.37
2023-11-18T01:14:43.316Z,8.20
2023-11-18T01:17:15.361Z,7.97
2023-11-18T01:19:45.834Z,7.77
2023-11-18T01:22:16.115Z,8.07
2023-11-18T01:24:45.826Z,7.57
2023-11-18T01:27:15.641Z,7.60
2023-11-18T01:29:46.180Z,7.93
2023-11-18T01:32:20.611Z,7.80
2023-11-18T01:34:51.992Z,7.33
2023-11-18T01:37:23.492Z,7.30
2023-11-18T01:39:54.132Z,7.67
2023-11-18T01:42:23.906Z,7.50
2023-11-18T01:44:54.251Z,6.97
2023-11-18T01:47:25.646Z,6.60
2023-11-18T01:49:56.660Z,6.77
2023-11-18T01:52:27.901Z,6.67
2023-11-18T01:54:58.746Z,7.30
2023-11-18T01:57:29.269Z,6.53
2023-11-18T01:59:59.983Z,6.50
2023-11-18T02:02:31.979Z,6.10
2023-11-18T02:05:03.128Z,5.63
2023-11-18T02:07:33.532Z,6.30
2023-11-18T02:10:04.036Z,5.80
2023-11-18T02:12:42.771Z,5.70
2023-11-18T02:15:14.415Z,5.40
2023-11-18T02:17:48.445Z,5.50
2023-11-18T02:20:22.596Z,5.67
2023-11-18T02:22:54.454Z,6.07
2023-11-18T02:25:30.344Z,5.03
2023-11-18T02:28:01.715Z,5.70
2023-11-18T02:30:32.466Z,5.03
2023-11-18T02:33:07.187Z,5.13
2023-11-18T02:35:44.635Z,5.17
2023-11-18T02:38:15.699Z,4.90
2023-11-18T02:40:46.887Z,4.63
2023-11-18T02:43:19.526Z,4.83
2023-11-18T02:45:51.399Z,4.50
2023-11-18T02:48:21.511Z,4.63
2023-11-18T02:50:51.925Z,4.30
2023-11-18T02:53:22.353Z,5.10
2023-11-18T02:55:53.529Z,4.17
2023-11-18T02:58:24.843Z,4.10
2023-11-18T03:00:55.281Z,3.97
2023-11-18T03:03:27.518Z,3.97
2023-11-18T03:05:57.550Z,4.10
2023-11-18T03:08:30.260Z,4.10
2023-11-18T03:11:01.420Z,3.80
2023-11-18T03:13:34.190Z,3.83
2023-11-18T03:16:05.929Z,4.00
2023-11-18T03:18:41.075Z,3.70
2023-11-18T03:21:15.283Z,4.07
2023-11-18T03:23:47.026Z,3.87
2023-11-18T03:26:16.948Z,3.93
2023-11-18T03:28:48.398Z,3.70
2023-11-18T03:31:18.569Z,3.73
2023-11-18T03:33:48.333Z,3.93
2023-11-18T03:36:19.355Z,3.83
2023-11-18T03:38:49.697Z,3.57
2023-11-18T03:41:19.607Z,3.80
2023-11-18T03:43:51.591Z,4.13
2023-11-18T03:46:21.311Z,4.00
2023-11-18T03:48:51.175Z,3.50
2023-11-18T03:51:20.897Z,3.30
2023-11-18T03:53:50.708Z,3.47
2023-11-18T03:56:21.323Z,3.40
2023-11-18T03:58:52.707Z,3.70
2023-11-18T04:01:24.365Z,3.40
2023-11-18T04:03:54.266Z,3.67
2023-11-18T04:06:25.901Z,3.60
2023-11-18T04:08:55.952Z,3.50
2023-11-18T04:11:25.835Z,3.80
2023-11-18T04:13:56.685Z,3.33
2023-11-18T04:16:26.948Z,3.67
2023-11-18T04:18:57.628Z,4.90
2023-11-18T04:21:27.748Z,8.43
2023-11-18T04:23:57.347Z,6.37
2023-11-18T04:26:27.272Z,4.87
2023-11-18T04:28:58.781Z,3.73
2023-11-18T04:31:29.552Z,3.37
2023-11-18T04:33:59.571Z,4.70
2023-11-18T04:36:30.327Z,6.00
2023-11-18T04:39:01.036Z,4.83
2023-11-18T04:41:32.985Z,3.40
2023-11-18T04:44:04.685Z,3.70
2023-11-18T04:46:35.694Z,3.57
2023-11-18T04:49:07.128Z,3.67
2023-11-18T04:51:37.164Z,3.80
2023-11-18T04:54:09.536Z,4.17
2023-11-18T04:56:39.549Z,3.97
2023-11-18T04:59:11.239Z,4.00
2023-11-18T05:01:41.196Z,3.93
2023-11-18T05:04:14.065Z,4.07
2023-11-18T05:06:45.045Z,4.17
2023-11-18T05:09:17.733Z,4.30
2023-11-18T05:11:47.625Z,4.17
2023-11-18T05:14:18.924Z,4.43
2023-11-18T05:16:48.715Z,4.47
2023-11-18T05:19:18.505Z,4.50
2023-11-18T05:21:51.226Z,4.33
2023-11-18T05:24:20.985Z,4.67
2023-11-18T05:26:50.909Z,4.43
2023-11-18T05:29:22.662Z,4.50
2023-11-18T05:31:54.035Z,4.43
2023-11-18T05:34:24.126Z,4.10
2023-11-18T05:36:56.600Z,4.50
2023-11-18T05:39:29.495Z,4.57
2023-11-18T05:41:59.704Z,4.60
2023-11-18T05:44:39.036Z,4.70
2023-11-18T05:47:13.082Z,4.87
2023-11-18T05:49:42.673Z,5.07
2023-11-18T05:52:13.297Z,5.40
2023-11-18T05:54:43.396Z,5.43
2023-11-18T05:57:13.734Z,5.20
2023-11-18T05:59:45.485Z,5.97
2023-11-18T06:02:19.908Z,5.50
2023-11-18T06:04:50.947Z,5.23
2023-11-18T06:07:21.282Z,5.50
2023-11-18T06:09:51.386Z,6.30
2023-11-18T06:12:21.005Z,5.27
2023-11-18T06:14:52.831Z,5.87
2023-11-18T06:17:23.228Z,6.27
2023-11-18T06:19:53.021Z,5.87
2023-11-18T06:22:25.811Z,5.70
2023-11-18T06:24:56.205Z,6.27
2023-11-18T06:27:26.131Z,5.97
2023-11-18T06:30:10.780Z,6.30
2023-11-18T06:32:43.991Z,6.10
2023-11-18T06:35:16.305Z,5.77
2023-11-18T06:37:46.271Z,5.83
2023-11-18T06:40:20.459Z,5.50
2023-11-18T06:42:50.381Z,6.17
2023-11-18T06:45:23.567Z,6.33
2023-11-18T06:47:53.296Z,8.13
2023-11-18T06:50:26.056Z,18.30
2023-11-18T06:52:55.801Z,18.43
2023-11-18T06:55:25.286Z,9.60
2023-11-18T06:57:55.367Z,16.60
2023-11-18T07:00:29.444Z,6.87
2023-11-18T07:02:59.306Z,6.17
2023-11-18T07:05:30.416Z,6.17
2023-11-18T07:08:00.433Z,5.53
2023-11-18T07:10:29.855Z,5.63
2023-11-18T07:13:01.228Z,5.57
2023-11-18T07:15:33.111Z,6.07
2023-11-18T07:18:04.971Z,6.03
2023-11-18T07:20:34.759Z,5.90
2023-11-18T07:23:04.392Z,5.87
2023-11-18T07:25:35.524Z,5.63
2023-11-18T07:28:06.764Z,6.00
2023-11-18T07:30:38.607Z,5.97
2023-11-18T07:33:10.024Z,5.93
2023-11-18T07:35:39.809Z,9.47
2023-11-18T07:38:10.858Z,10.30
2023-11-18T07:40:47.231Z,8.13
2023-11-18T07:43:17.115Z,8.10
2023-11-18T07:45:51.045Z,7.43
2023-11-18T07:48:22.073Z,7.63
2023-11-18T07:50:52.377Z,6.30
2023-11-18T07:53:23.542Z,5.80
2023-11-18T07:55:54.071Z,5.53
2023-11-18T07:58:24.799Z,5.43
2023-11-18T08:00:56.337Z,5.73
2023-11-18T08:03:26.333Z,5.47
2023-11-18T08:05:56.558Z,5.70
2023-11-18T08:08:26.101Z,4.93
2023-11-18T08:10:56.929Z,5.77
2023-11-18T08:13:26.613Z,5.80
2023-11-18T08:15:59.370Z,6.27
2023-11-18T08:18:32.601Z,7.07
2023-11-18T08:21:03.417Z,7.90
2023-11-18T08:23:33.639Z,8.10
2023-11-18T08:26:03.455Z,7.87
2023-11-18T08:28:33.371Z,8.27
2023-11-18T08:31:04.450Z,8.63
2023-11-18T08:33:34.631Z,8.60
2023-11-18T08:36:04.337Z,6.97
2023-11-18T08:38:34.572Z,6.73
2023-11-18T08:41:05.611Z,6.87
2023-11-18T08:43:36.849Z,6.70
2023-11-18T08:46:09.142Z,6.73
2023-11-18T08:48:39.360Z,6.73
2023-11-18T08:51:13.198Z,7.80
2023-11-18T08:53:43.689Z,7.67
2023-11-18T08:56:15.579Z,7.83
2023-11-18T08:58:47.615Z,6.87
2023-11-18T09:01:32.013Z,7.30
2023-11-18T09:04:14.525Z,6.60
2023-11-18T09:06:46.836Z,6.80
2023-11-18T09:09:17.770Z,6.40
2023-11-18T09:11:52.193Z,6.80
2023-11-18T09:14:32.327Z,6.90
2023-11-18T09:17:08.436Z,6.80
2023-11-18T09:19:43.649Z,7.03
2023-11-18T09:22:16.426Z,6.40
2023-11-18T09:24:48.717Z,6.33
2023-11-18T09:27:21.475Z,6.77
2023-11-18T09:29:52.537Z,6.37
2023-11-18T09:32:30.489Z,6.30
2023-11-18T09:35:11.885Z,6.83
2023-11-18T09:37:45.222Z,7.00
2023-11-18T09:40:18.078Z,7.03
2023-11-18T09:42:55.475Z,6.53
2023-11-18T09:45:39.102Z,7.07
2023-11-18T09:48:23.050Z,6.90
2023-11-18T09:50:59.136Z,6.73
2023-11-18T09:53:39.358Z,6.57
2023-11-18T09:56:24.637Z,6.20
2023-11-18T09:59:09.086Z,6.93
2023-11-18T10:01:44.705Z,7.00
2023-11-18T10:04:20.291Z,6.27
2023-11-18T10:06:56.037Z,6.63
2023-11-18T10:09:38.588Z,6.67
2023-11-18T10:12:14.854Z,6.23
2023-11-18T10:14:46.364Z,6.90
2023-11-18T10:17:19.913Z,6.10
2023-11-18T10:19:59.425Z,5.80
2023-11-18T10:22:31.018Z,6.27
2023-11-18T10:25:07.494Z,6.03
2023-11-18T10:27:37.423Z,6.10
2023-11-18T10:30:20.575Z,6.10
2023-11-18T10:33:07.825Z,6.40
2023-11-18T10:35:39.333Z,5.53
2023-11-18T10:38:09.184Z,5.43
2023-11-18T10:40:38.958Z,5.20
2023-11-18T10:43:11.444Z,5.20
2023-11-18T10:45:45.211Z,5.10
2023-11-18T10:48:18.156Z,5.27
2023-11-18T10:50:52.830Z,5.17
2023-11-18T10:53:23.308Z,4.93
2023-11-18T10:55:53.008Z,4.83
2023-11-18T10:58:22.795Z,5.50
2023-11-18T11:00:57.203Z,4.93
2023-11-18T11:03:26.981Z,6.93
2023-11-18T11:05:58.689Z,7.30
2023-11-18T11:08:36.216Z,7.95
2023-11-18T11:11:17.968Z,11.50
2023-11-18T11:13:51.885Z,23.40
2023-11-18T11:16:24.769Z,5.90
2023-11-18T11:18:58.155Z,5.87
2023-11-18T11:21:33.938Z,6.40
2023-11-18T11:24:13.835Z,7.23
2023-11-18T11:26:58.304Z,14.43
2023-11-18T11:29:34.115Z,6.17
2023-11-18T11:32:15.417Z,6.28
2023-11-18T11:34:55.131Z,11.23
2023-11-18T11:37:28.510Z,7.68
2023-11-18T11:40:00.256Z,6.45
2023-11-18T11:42:31.079Z,7.43
2023-11-18T11:45:02.020Z,9.57
2023-11-18T11:47:38.199Z,7.40
2023-11-18T11:50:23.107Z,7.00
2023-11-18T11:53:04.836Z,7.53
2023-11-18T11:55:42.624Z,6.47
2023-11-18T11:58:29.999Z,6.90
2023-11-18T12:01:02.937Z,6.47
2023-11-18T12:03:37.949Z,6.85
2023-11-18T12:06:12.466Z,6.57
2023-11-18T12:08:46.702Z,6.80
2023-11-18T12:11:18.307Z,6.82
2023-11-18T12:14:14.659Z,6.57
2023-11-18T12:17:08.973Z,6.10
2023-11-18T12:19:46.378Z,6.18
2023-11-18T12:22:21.298Z,6.43
2023-11-18T12:25:25.720Z,6.50
2023-11-18T12:28:00.650Z,6.13
2023-11-18T12:31:00.092Z,6.07
2023-11-18T12:33:49.975Z,6.07
2023-11-18T12:36:49.241Z,6.20
2023-11-18T12:39:43.633Z,5.85
2023-11-18T12:42:23.920Z,6.45
2023-11-18T12:45:25.566Z,6.00
2023-11-18T12:48:00.099Z,5.72
2023-11-18T12:50:35.316Z,6.65
2023-11-18T12:53:08.253Z,6.30
2023-11-18T12:55:39.660Z,6.28
2023-11-18T12:58:13.869Z,6.03
2023-11-18T13:00:47.997Z,5.80
2023-11-18T13:03:19.642Z,5.93
2023-11-18T13:05:50.049Z,6.20
2023-11-18T13:08:24.068Z,6.40
2023-11-18T13:10:54.397Z,5.93
2023-11-18T13:13:26.036Z,6.30
2023-11-18T13:15:57.647Z,6.05
2023-11-18T13:18:28.640Z,6.15
2023-11-18T13:21:00.803Z,6.22
2023-11-18T13:23:32.833Z,5.57
2023-11-18T13:26:07.094Z,5.88
2023-11-18T13:28:41.298Z,6.40
2023-11-18T13:31:18.039Z,6.40
2023-11-18T13:33:51.384Z,6.78
2023-11-18T13:36:22.718Z,6.50
2023-11-18T13:38:53.727Z,6.75
2023-11-18T13:41:43.019Z,6.53
2023-11-18T13:44:14.910Z,6.75
2023-11-18T13:46:49.699Z,6.70
2023-11-18T13:49:25.772Z,6.82
2023-11-18T13:52:00.002Z,6.72
2023-11-18T13:54:33.174Z,7.00
2023-11-18T13:57:03.453Z,6.72
2023-11-18T13:59:34.959Z,6.82
2023-11-18T14:02:09.124Z,6.80
2023-11-18T14:04:38.872Z,7.03
2023-11-18T14:07:11.471Z,7.22
2023-11-18T14:09:42.926Z,6.97
2023-11-18T14:12:13.032Z,7.60
2023-11-18T14:14:54.707Z,7.10
2023-11-18T14:17:29.057Z,7.75
2023-11-18T14:20:01.168Z,7.00
2023-11-18T14:22:31.590Z,8.18
2023-11-18T14:25:01.430Z,7.15
2023-11-18T14:27:31.572Z,7.07
2023-11-18T14:30:04.037Z,7.53
2023-11-18T14:32:35.718Z,6.72
2023-11-18T14:35:11.872Z,6.97
2023-11-18T14:37:44.965Z,7.10
2023-11-18T14:40:18.029Z,7.18
2023-11-18T14:42:50.514Z,6.95
2023-11-18T14:45:21.458Z,7.88
2023-11-18T14:47:58.851Z,6.95
2023-11-18T14:50:32.252Z,7.43
2023-11-18T14:53:04.667Z,6.55
2023-11-18T14:55:35.352Z,7.00
2023-11-18T14:58:06.272Z,6.50
2023-11-18T15:00:39.763Z,7.13
2023-11-18T15:03:11.896Z,7.65
2023-11-18T15:05:41.645Z,9.77
2023-11-18T15:08:14.267Z,9.07
2023-11-18T15:10:45.766Z,8.52
2023-11-18T15:13:16.932Z,8.07
2023-11-18T15:15:48.937Z,8.90
2023-11-18T15:18:22.528Z,8.43
2023-11-18T15:20:53.614Z,8.90
2023-11-18T15:23:23.866Z,8.05
2023-11-18T15:25:54.014Z,8.48
2023-11-18T15:28:23.686Z,8.60
2023-11-18T15:30:53.425Z,8.25
2023-11-18T15:33:25.007Z,9.82
2023-11-18T15:35:54.740Z,10.93
2023-11-18T15:38:25.709Z,10.20
2023-11-18T15:40:55.931Z,10.80
2023-11-18T15:43:26.029Z,11.83
2023-11-18T15:45:57.609Z,10.60
2023-11-18T15:48:30.364Z,10.17
2023-11-18T15:51:00.920Z,10.33
2023-11-18T15:53:31.653Z,10.07
2023-11-18T15:56:01.535Z,10.53
2023-11-18T15:58:31.346Z,10.23
2023-11-18T16:01:00.976Z,13.20
2023-11-18T16:03:32.269Z,12.67
2023-11-18T16:06:02.045Z,22.53
2023-11-18T16:08:37.919Z,20.57
2023-11-18T16:11:08.141Z,20.33
2023-11-18T16:13:36.661Z,18.87
2023-11-18T16:16:07.504Z,21.43
2023-11-18T16:18:38.631Z,22.77
2023-11-18T16:21:08.662Z,20.67
2023-11-18T16:23:39.741Z,22.00
2023-11-18T16:26:09.776Z,28.67
2023-11-18T16:28:39.120Z,30.97
2023-11-18T16:31:10.698Z,30.37
2023-11-18T16:33:45.031Z,26.93
2023-11-18T16:36:24.419Z,38.37
2023-11-18T16:38:55.652Z,26.03
2023-11-18T16:41:29.595Z,28.03
2023-11-18T16:44:01.659Z,30.20
2023-11-18T16:46:31.256Z,28.07
2023-11-18T16:49:02.394Z,23.43
2023-11-18T16:51:32.710Z,19.87
2023-11-18T16:54:03.749Z,21.67
2023-11-18T16:56:33.422Z,18.83
2023-11-18T16:59:12.003Z,17.00
2023-11-18T17:01:42.829Z,15.43
2023-11-18T17:04:14.179Z,16.50
2023-11-18T17:06:46.160Z,15.73
2023-11-18T17:09:16.700Z,17.40
2023-11-18T17:11:49.810Z,21.57
2023-11-18T17:14:19.883Z,24.60
2023-11-18T17:16:49.879Z,40.73
2023-11-18T17:19:21.131Z,33.03
2023-11-18T17:21:53.609Z,19.80
2023-11-18T17:24:23.320Z,18.17
2023-11-18T17:26:53.115Z,21.07
2023-11-18T17:29:23.047Z,23.20
2023-11-18T17:31:52.725Z,21.63
2023-11-18T17:34:23.692Z,37.53
2023-11-18T17:36:54.629Z,119.67
2023-11-18T17:39:25.594Z,44.53
2023-11-18T17:42:02.031Z,28.70
2023-11-18T17:44:37.493Z,25.97
2023-11-18T17:47:09.583Z,28.37
2023-11-18T17:49:40.882Z,37.50
2023-11-18T17:52:11.187Z,33.90
2023-11-18T17:54:42.418Z,32.97
2023-11-18T17:57:16.281Z,30.00
2023-11-18T17:59:46.373Z,32.80
2023-11-18T18:02:18.979Z,36.23
2023-11-18T18:04:50.402Z,35.10
2023-11-18T18:07:20.192Z,35.53
2023-11-18T18:09:49.673Z,37.00
2023-11-18T18:12:20.682Z,37.77
2023-11-18T18:14:50.476Z,39.63
2023-11-18T18:17:20.104Z,38.87
2023-11-18T18:19:51.929Z,36.10
2023-11-18T18:22:22.364Z,35.20
2023-11-18T18:24:51.972Z,30.90
2023-11-18T18:27:23.010Z,29.20
2023-11-18T18:29:52.508Z,27.50
2023-11-18T18:32:22.464Z,27.60
2023-11-18T18:34:53.471Z,25.03
2023-11-18T18:37:27.447Z,26.30
2023-11-18T18:39:57.901Z,25.27
2023-11-18T18:42:27.920Z,26.90
2023-11-18T18:44:58.560Z,27.40
2023-11-18T18:47:30.583Z,28.33
2023-11-18T18:50:02.689Z,27.03
2023-11-18T18:52:32.300Z,27.43
2023-11-18T18:55:02.224Z,26.97
2023-11-18T18:57:35.057Z,25.47
2023-11-18T19:00:07.051Z,26.77
2023-11-18T19:02:37.027Z,25.20
2023-11-18T19:05:10.131Z,25.47
2023-11-18T19:07:39.871Z,24.10
2023-11-18T19:10:10.108Z,24.43
2023-11-18T19:12:40.038Z,25.37
2023-11-18T19:15:10.342Z,29.27
2023-11-18T19:17:40.917Z,27.37
2023-11-18T19:20:15.060Z,25.23
2023-11-18T19:22:45.531Z,25.40
2023-11-18T19:25:17.192Z,25.70
2023-11-18T19:27:47.429Z,26.20
2023-11-18T19:30:17.382Z,32.40
2023-11-18T19:32:47.227Z,31.33
2023-11-18T19:35:18.362Z,27.40
2023-11-18T19:37:49.984Z,25.30
2023-11-18T19:40:20.624Z,26.27
2023-11-18T19:42:50.329Z,29.00
2023-11-18T19:45:20.152Z,30.07
2023-11-18T19:47:50.916Z,28.80
2023-11-18T19:52:55.979Z,25.77
2023-11-18T19:55:25.644Z,25.10
2023-11-18T19:57:56.181Z,24.37
2023-11-18T20:00:28.139Z,25.67
2023-11-18T20:02:59.101Z,21.47
2023-11-18T20:05:30.332Z,20.87
2023-11-18T20:08:00.073Z,22.17
2023-11-18T20:10:30.044Z,21.80
2023-11-18T20:13:00.684Z,21.93
2023-11-18T20:15:32.023Z,20.80
2023-11-18T20:18:01.954Z,21.07
2023-11-18T20:20:33.169Z,22.03
2023-11-18T20:23:02.835Z,23.03
2023-11-18T20:25:32.829Z,24.80
2023-11-18T20:28:03.645Z,30.83
2023-11-18T20:30:33.333Z,27.57
2023-11-18T20:33:03.186Z,28.10
2023-11-18T20:35:34.632Z,26.47
2023-11-18T20:38:04.458Z,24.50
2023-11-18T20:40:34.273Z,21.97
2023-11-18T20:43:04.282Z,20.43
2023-11-18T20:45:36.188Z,18.23
2023-11-18T20:48:09.482Z,18.37
2023-11-18T20:50:40.867Z,18.60
2023-11-18T20:53:11.009Z,18.80
2023-11-18T20:55:41.100Z,18.80
2023-11-18T20:58:11.757Z,17.57
2023-11-18T21:00:42.150Z,20.73
2023-11-18T21:03:12.086Z,19.97
2023-11-18T21:05:43.422Z,21.57
2023-11-18T21:08:14.326Z,22.43
2023-11-18T21:10:44.671Z,20.07
2023-11-18T21:13:14.492Z,20.37
2023-11-18T21:15:44.612Z,20.30
2023-11-18T21:18:14.652Z,21.17
2023-11-18T21:20:46.593Z,21.37
2023-11-18T21:23:16.414Z,20.93
2023-11-18T21:25:47.130Z,21.33
2023-11-18T21:28:17.150Z,21.70
2023-11-18T21:30:47.683Z,21.97
2023-11-18T21:33:17.510Z,21.43
2023-11-18T21:35:49.264Z,19.47
2023-11-18T21:38:19.299Z,19.87
2023-11-18T21:40:48.979Z,19.50
2023-11-18T21:43:18.542Z,22.40
2023-11-18T21:45:48.287Z,24.00
2023-11-18T21:48:17.908Z,23.90
2023-11-18T21:50:50.056Z,21.93
2023-11-18T21:53:22.186Z,21.53
2023-11-18T21:55:55.662Z,21.60
2023-11-18T21:58:26.179Z,21.13
2023-11-18T22:00:56.060Z,21.80
2023-11-18T22:03:26.479Z,21.90
2023-11-18T22:05:57.832Z,21.40
2023-11-18T22:08:27.356Z,20.13
2023-11-18T22:10:58.986Z,21.53
2023-11-18T22:13:28.708Z,21.07
2023-11-18T22:15:59.067Z,21.80
2023-11-18T22:18:29.252Z,19.97
2023-11-18T22:21:00.294Z,20.87
2023-11-18T22:23:30.184Z,27.43
2023-11-18T22:26:00.227Z,32.10
2023-11-18T22:28:33.320Z,26.27
2023-11-18T22:31:04.353Z,21.67
2023-11-18T22:33:36.501Z,20.97
2023-11-18T22:36:08.935Z,19.07
2023-11-18T22:38:39.897Z,20.10
2023-11-18T22:41:11.208Z,19.80
2023-11-18T22:43:41.710Z,18.90
2023-11-18T22:46:12.410Z,18.57
2023-11-18T22:48:42.261Z,17.97
2023-11-18T22:51:12.948Z,18.37
2023-11-18T22:53:44.593Z,16.13
2023-11-18T22:56:15.739Z,16.17
2023-11-18T22:58:45.812Z,15.50
2023-11-18T23:01:21.413Z,14.90
2023-11-18T23:03:53.102Z,15.97
2023-11-18T23:06:25.492Z,14.57
2023-11-18T23:08:56.108Z,14.70
2023-11-18T23:11:26.781Z,13.20
2023-11-18T23:13:56.653Z,13.47
2023-11-18T23:16:26.473Z,14.13
2023-11-18T23:18:57.633Z,14.17
2023-11-18T23:21:30.691Z,13.10
2023-11-18T23:24:00.380Z,13.77
2023-11-18T23:26:31.135Z,13.53
2023-11-18T23:29:01.401Z,13.47
2023-11-18T23:31:31.651Z,13.63
2023-11-18T23:34:02.600Z,13.43
2023-11-18T23:36:34.481Z,13.37
2023-11-18T23:39:04.484Z,12.97
2023-11-18T23:41:34.199Z,13.80
2023-11-18T23:44:06.734Z,12.83
2023-11-18T23:46:36.691Z,13.27
2023-11-18T23:49:13.986Z,14.33
2023-11-18T23:51:45.549Z,13.83
2023-11-18T23:54:15.840Z,14.13
2023-11-18T23:56:46.083Z,12.80
2023-11-18T23:59:15.903Z,13.10
